Terminal Aerodrome Forecast
Issued by NWS

Home | Current Version | Previous Version | Text Only | Print | Product List | Glossary On
Versions: 1 2 3 4 5 6 7 8 9 10 11 12 13 14 15 16 17 18 19 20 21 22 23 24 25 26 27 28 29 30 31 32
000
FTAK31 PAFA 231904 AAA
TAFASC
TAF AMD
PASC 231904Z 2319/2418 22014KT 5SM BR FEW002 SCT200
     FM240800 23010KT 4SM -SN BR BKN035 OVC060
     FM241200 25012KT 5SM BR SCT035 OVC060=

USA.gov is the U.S. government's official web portal to all federal, state and local government web resources and services.